sensor_id;sensor_type;location;lat;lon;timestamp;P1;P2;P0
13030;PMS7003;6582;54.644;9.760;2023-05-15T00:00:01;81.1;64.0;
13030;PMS7003;6582;54.644;9.760;2023-05-15T00:05:02;80.2;63.0;
13030;PMS7003;6582;54.644;9.760;2023-05-15T00:10:01;82.6;65.4;
13030;PMS7003;6582;54.644;9.760;2023-05-15T00:15:01;82.0;64.6;
13030;PMS7003;6582;54.644;9.760;2023-05-15T00:25:06;82.3;64.5;
13030;PMS7003;6582;54.644;9.760;2023-05-15T00:30:01;83.4;65.3;
13030;PMS7003;6582;54.644;9.760;2023-05-15T00:35:01;82.4;64.2;
13030;PMS7003;6582;54.644;9.760;2023-05-15T00:40:01;83.0;65.6;
13030;PMS7003;6582;54.644;9.760;2023-05-15T00:45:01;84.5;67.4;
13030;PMS7003;6582;54.644;9.760;2023-05-15T00:50:01;86.1;70.0;
13030;PMS7003;6582;54.644;9.760;2023-05-15T00:55:02;85.5;70.0;
13030;PMS7003;6582;54.644;9.760;2023-05-15T01:00:01;86.2;70.9;
13030;PMS7003;6582;54.644;9.760;2023-05-15T01:05:06;87.3;73.2;
13030;PMS7003;6582;54.644;9.760;2023-05-15T01:10:02;87.2;73.7;
13030;PMS7003;6582;54.644;9.760;2023-05-15T01:15:01;88.0;74.8;
13030;PMS7003;6582;54.644;9.760;2023-05-15T01:20:01;91.3;79.4;
13030;PMS7003;6582;54.644;9.760;2023-05-15T01:25:07;89.6;77.7;
13030;PMS7003;6582;54.644;9.760;2023-05-15T01:30:03;88.4;75.2;
13030;PMS7003;6582;54.644;9.760;2023-05-15T01:50:02;92.8;84.4;
13030;PMS7003;6582;54.644;9.760;2023-05-15T01:55:07;93.1;83.1;
13030;PMS7003;6582;54.644;9.760;2023-05-15T02:00:02;96.6;85.9;
13030;PMS7003;6582;54.644;9.760;2023-05-15T02:05:02;94.1;82.6;
13030;PMS7003;6582;54.644;9.760;2023-05-15T02:10:02;93.9;82.4;
13030;PMS7003;6582;54.644;9.760;2023-05-15T02:15:02;94.0;82.2;
13030;PMS7003;6582;54.644;9.760;2023-05-15T02:20:02;94.6;83.5;
13030;PMS7003;6582;54.644;9.760;2023-05-15T02:25:02;94.4;84.2;
13030;PMS7003;6582;54.644;9.760;2023-05-15T02:30:08;97.7;88.9;
13030;PMS7003;6582;54.644;9.760;2023-05-15T02:35:04;99.9;92.2;
13030;PMS7003;6582;54.644;9.760;2023-05-15T02:40:02;100.0;92.7;
13030;PMS7003;6582;54.644;9.760;2023-05-15T02:45:02;99.5;92.0;
13030;PMS7003;6582;54.644;9.760;2023-05-15T02:50:02;98.3;91.1;
13030;PMS7003;6582;54.644;9.760;2023-05-15T02:55:02;96.1;87.4;
13030;PMS7003;6582;54.644;9.760;2023-05-15T03:00:02;93.3;82.9;
13030;PMS7003;6582;54.644;9.760;2023-05-15T03:05:03;92.6;80.9;
13030;PMS7003;6582;54.644;9.760;2023-05-15T03:10:01;93.2;81.7;
13030;PMS7003;6582;54.644;9.760;2023-05-15T03:15:02;92.8;80.8;
13030;PMS7003;6582;54.644;9.760;2023-05-15T03:20:01;94.3;83.2;
13030;PMS7003;6582;54.644;9.760;2023-05-15T03:25:01;95.5;85.6;
13030;PMS7003;6582;54.644;9.760;2023-05-15T03:30:02;96.5;88.3;
13030;PMS7003;6582;54.644;9.760;2023-05-15T03:35:02;95.7;87.2;
13030;PMS7003;6582;54.644;9.760;2023-05-15T03:40:01;95.4;86.8;
13030;PMS7003;6582;54.644;9.760;2023-05-15T03:45:01;93.8;85.4;
13030;PMS7003;6582;54.644;9.760;2023-05-15T03:50:02;94.4;86.3;
13030;PMS7003;6582;54.644;9.760;2023-05-15T04:00:02;94.1;85.6;
13030;PMS7003;6582;54.644;9.760;2023-05-15T04:05:02;94.2;85.5;
13030;PMS7003;6582;54.644;9.760;2023-05-15T04:10:01;95.5;86.6;
13030;PMS7003;6582;54.644;9.760;2023-05-15T04:30:02;88.8;75.0;
13030;PMS7003;6582;54.644;9.760;2023-05-15T04:35:02;91.2;77.1;
13030;PMS7003;6582;54.644;9.760;2023-05-15T04:40:02;90.6;76.5;
13030;PMS7003;6582;54.644;9.760;2023-05-15T04:45:02;90.2;76.3;
13030;PMS7003;6582;54.644;9.760;2023-05-15T04:50:02;91.6;77.9;
13030;PMS7003;6582;54.644;9.760;2023-05-15T04:55:02;94.5;81.3;
13030;PMS7003;6582;54.644;9.760;2023-05-15T05:00:02;94.7;83.4;
13030;PMS7003;6582;54.644;9.760;2023-05-15T05:05:02;94.6;83.6;
13030;PMS7003;6582;54.644;9.760;2023-05-15T05:10:07;95.4;85.3;
13030;PMS7003;6582;54.644;9.760;2023-05-15T05:15:02;94.6;85.1;
13030;PMS7003;6582;54.644;9.760;2023-05-15T05:20:02;91.5;81.7;
13030;PMS7003;6582;54.644;9.760;2023-05-15T05:25:02;89.1;77.2;
13030;PMS7003;6582;54.644;9.760;2023-05-15T05:30:02;94.0;83.4;
13030;PMS7003;6582;54.644;9.760;2023-05-15T05:35:02;91.4;79.0;
13030;PMS7003;6582;54.644;9.760;2023-05-15T05:40:02;88.7;75.1;
13030;PMS7003;6582;54.644;9.760;2023-05-15T05:45:02;87.5;74.0;
13030;PMS7003;6582;54.644;9.760;2023-05-15T05:55:02;81.6;68.5;
13030;PMS7003;6582;54.644;9.760;2023-05-15T06:00:02;82.5;71.1;
13030;PMS7003;6582;54.644;9.760;2023-05-15T06:05:02;83.4;73.4;
13030;PMS7003;6582;54.644;9.760;2023-05-15T06:10:03;84.1;74.3;
13030;PMS7003;6582;54.644;9.760;2023-05-15T06:15:02;89.0;79.8;
13030;PMS7003;6582;54.644;9.760;2023-05-15T06:20:02;89.4;80.0;
13030;PMS7003;6582;54.644;9.760;2023-05-15T06:25:03;90.9;82.2;
13030;PMS7003;6582;54.644;9.760;2023-05-15T06:30:02;91.3;82.6;
13030;PMS7003;6582;54.644;9.760;2023-05-15T06:35:02;91.8;83.0;
13030;PMS7003;6582;54.644;9.760;2023-05-15T06:40:03;90.6;81.1;
13030;PMS7003;6582;54.644;9.760;2023-05-15T06:45:02;93.6;85.0;
13030;PMS7003;6582;54.644;9.760;2023-05-15T06:50:02;95.8;86.6;
13030;PMS7003;6582;54.644;9.760;2023-05-15T06:55:02;99.1;90.2;
13030;PMS7003;6582;54.644;9.760;2023-05-15T07:00:07;100.8;93.3;
13030;PMS7003;6582;54.644;9.760;2023-05-15T07:05:02;97.5;89.8;
13030;PMS7003;6582;54.644;9.760;2023-05-15T07:10:02;94.3;86.1;
13030;PMS7003;6582;54.644;9.760;2023-05-15T07:15:03;90.6;82.2;
13030;PMS7003;6582;54.644;9.760;2023-05-15T07:20:02;86.3;78.1;
13030;PMS7003;6582;54.644;9.760;2023-05-15T07:25:02;85.7;77.2;
13030;PMS7003;6582;54.644;9.760;2023-05-15T07:30:03;85.0;77.7;
13030;PMS7003;6582;54.644;9.760;2023-05-15T07:35:02;85.8;78.8;
13030;PMS7003;6582;54.644;9.760;2023-05-15T07:40:02;85.9;79.9;
13030;PMS7003;6582;54.644;9.760;2023-05-15T07:45:02;87.0;81.4;
13030;PMS7003;6582;54.644;9.760;2023-05-15T07:50:02;85.2;79.0;
13030;PMS7003;6582;54.644;9.760;2023-05-15T07:55:03;84.8;78.0;
13030;PMS7003;6582;54.644;9.760;2023-05-15T08:00:02;84.7;77.5;
13030;PMS7003;6582;54.644;9.760;2023-05-15T08:05:02;85.1;77.0;
13030;PMS7003;6582;54.644;9.760;2023-05-15T08:10:02;87.6;79.0;
13030;PMS7003;6582;54.644;9.760;2023-05-15T08:15:02;89.0;80.4;
13030;PMS7003;6582;54.644;9.760;2023-05-15T08:20:02;90.5;82.0;
13030;PMS7003;6582;54.644;9.760;2023-05-15T08:25:02;90.1;81.8;
13030;PMS7003;6582;54.644;9.760;2023-05-15T08:30:02;91.4;83.0;
13030;PMS7003;6582;54.644;9.760;2023-05-15T08:35:02;88.2;79.9;
13030;PMS7003;6582;54.644;9.760;2023-05-15T08:40:03;86.0;77.7;
13030;PMS7003;6582;54.644;9.760;2023-05-15T08:45:02;84.2;75.8;
13030;PMS7003;6582;54.644;9.760;2023-05-15T08:50:06;82.4;73.7;
13030;PMS7003;6582;54.644;9.760;2023-05-15T08:55:02;84.7;77.0;
13030;PMS7003;6582;54.644;9.760;2023-05-15T09:00:02;84.1;76.2;
13030;PMS7003;6582;54.644;9.760;2023-05-15T09:05:02;83.7;76.0;
13030;PMS7003;6582;54.644;9.760;2023-05-15T09:10:02;83.8;76.2;
13030;PMS7003;6582;54.644;9.760;2023-05-15T09:15:10;83.7;76.2;
13030;PMS7003;6582;54.644;9.760;2023-05-15T09:20:02;79.0;70.7;
13030;PMS7003;6582;54.644;9.760;2023-05-15T09:25:02;79.2;70.7;
13030;PMS7003;6582;54.644;9.760;2023-05-15T09:30:09;80.3;71.4;
13030;PMS7003;6582;54.644;9.760;2023-05-15T09:35:02;81.4;72.8;
13030;PMS7003;6582;54.644;9.760;2023-05-15T09:40:06;82.4;74.0;
13030;PMS7003;6582;54.644;9.760;2023-05-15T09:45:03;81.8;73.7;
13030;PMS7003;6582;54.644;9.760;2023-05-15T09:50:02;81.0;73.2;
13030;PMS7003;6582;54.644;9.760;2023-05-15T09:55:02;80.3;73.1;
13030;PMS7003;6582;54.644;9.760;2023-05-15T10:00:01;79.0;72.6;
13030;PMS7003;6582;54.644;9.760;2023-05-15T10:05:02;78.5;73.4;
13030;PMS7003;6582;54.644;9.760;2023-05-15T10:15:02;78.3;75.7;
13030;PMS7003;6582;54.644;9.760;2023-05-15T10:20:02;78.1;76.4;
13030;PMS7003;6582;54.644;9.760;2023-05-15T10:25:02;78.6;77.0;
13030;PMS7003;6582;54.644;9.760;2023-05-15T10:30:02;78.1;76.6;
13030;PMS7003;6582;54.644;9.760;2023-05-15T10:35:02;78.0;76.5;
13030;PMS7003;6582;54.644;9.760;2023-05-15T10:40:03;78.4;76.1;
13030;PMS7003;6582;54.644;9.760;2023-05-15T10:45:02;78.1;75.8;
13030;PMS7003;6582;54.644;9.760;2023-05-15T10:50:07;81.3;79.1;
13030;PMS7003;6582;54.644;9.760;2023-05-15T10:55:04;81.9;79.7;
13030;PMS7003;6582;54.644;9.760;2023-05-15T11:00:02;82.2;79.9;
13030;PMS7003;6582;54.644;9.760;2023-05-15T11:05:03;82.1;80.4;
13030;PMS7003;6582;54.644;9.760;2023-05-15T11:30:05;80.6;79.2;
13030;PMS7003;6582;54.644;9.760;2023-05-15T11:35:01;100.0;97.7;
13030;PMS7003;6582;54.644;9.760;2023-05-15T11:40:06;94.8;91.7;
13030;PMS7003;6582;54.644;9.760;2023-05-15T11:45:08;93.8;91.5;
13030;PMS7003;6582;54.644;9.760;2023-05-15T11:50:02;91.0;89.0;
13030;PMS7003;6582;54.644;9.760;2023-05-15T11:55:01;93.3;91.3;
13030;PMS7003;6582;54.644;9.760;2023-05-15T12:00:02;85.6;83.9;
13030;PMS7003;6582;54.644;9.760;2023-05-15T12:05:02;85.3;84.6;
13030;PMS7003;6582;54.644;9.760;2023-05-15T12:10:01;83.2;82.5;
13030;PMS7003;6582;54.644;9.760;2023-05-15T12:15:01;85.3;84.5;
13030;PMS7003;6582;54.644;9.760;2023-05-15T12:20:01;84.5;83.7;
13030;PMS7003;6582;54.644;9.760;2023-05-15T12:25:01;88.7;88.2;
13030;PMS7003;6582;54.644;9.760;2023-05-15T12:30:01;89.4;88.9;
13030;PMS7003;6582;54.644;9.760;2023-05-15T12:35:02;90.7;90.2;
13030;PMS7003;6582;54.644;9.760;2023-05-15T12:40:02;92.1;91.7;
13030;PMS7003;6582;54.644;9.760;2023-05-15T12:45:01;91.4;90.9;
13030;PMS7003;6582;54.644;9.760;2023-05-15T12:50:01;89.5;89.0;
13030;PMS7003;6582;54.644;9.760;2023-05-15T12:55:01;88.9;88.2;
13030;PMS7003;6582;54.644;9.760;2023-05-15T13:00:01;87.5;86.4;
13030;PMS7003;6582;54.644;9.760;2023-05-15T13:05:02;84.2;83.1;
13030;PMS7003;6582;54.644;9.760;2023-05-15T13:10:03;86.2;85.6;
13030;PMS7003;6582;54.644;9.760;2023-05-15T13:15:02;83.6;82.6;
13030;PMS7003;6582;54.644;9.760;2023-05-15T13:20:06;83.3;81.9;
13030;PMS7003;6582;54.644;9.760;2023-05-15T13:25:01;83.5;82.3;
13030;PMS7003;6582;54.644;9.760;2023-05-15T13:30:01;88.6;87.3;
13030;PMS7003;6582;54.644;9.760;2023-05-15T13:35:01;86.2;85.0;
13030;PMS7003;6582;54.644;9.760;2023-05-15T13:40:03;88.8;87.6;
13030;PMS7003;6582;54.644;9.760;2023-05-15T13:45:02;88.4;87.2;
13030;PMS7003;6582;54.644;9.760;2023-05-15T13:50:02;89.3;87.0;
13030;PMS7003;6582;54.644;9.760;2023-05-15T13:55:01;84.5;81.0;
13030;PMS7003;6582;54.644;9.760;2023-05-15T14:00:01;84.8;79.8;
13030;PMS7003;6582;54.644;9.760;2023-05-15T14:05:01;84.3;77.6;
13030;PMS7003;6582;54.644;9.760;2023-05-15T14:10:01;85.5;77.6;
13030;PMS7003;6582;54.644;9.760;2023-05-15T14:15:01;85.9;78.0;
13030;PMS7003;6582;54.644;9.760;2023-05-15T14:20:01;86.6;78.0;
13030;PMS7003;6582;54.644;9.760;2023-05-15T14:25:02;87.1;78.3;
13030;PMS7003;6582;54.644;9.760;2023-05-15T14:30:01;85.9;77.8;
13030;PMS7003;6582;54.644;9.760;2023-05-15T14:35:07;86.1;78.1;
13030;PMS7003;6582;54.644;9.760;2023-05-15T14:40:01;86.5;78.4;
13030;PMS7003;6582;54.644;9.760;2023-05-15T14:45:01;87.1;78.9;
13030;PMS7003;6582;54.644;9.760;2023-05-15T14:50:01;86.2;78.0;
13030;PMS7003;6582;54.644;9.760;2023-05-15T14:55:10;87.2;78.4;
13030;PMS7003;6582;54.644;9.760;2023-05-15T15:00:01;87.1;78.0;
13030;PMS7003;6582;54.644;9.760;2023-05-15T15:05:01;86.9;77.4;
13030;PMS7003;6582;54.644;9.760;2023-05-15T15:10:01;85.1;75.9;
13030;PMS7003;6582;54.644;9.760;2023-05-15T15:15:01;84.2;75.2;
13030;PMS7003;6582;54.644;9.760;2023-05-15T15:20:01;83.2;74.6;
13030;PMS7003;6582;54.644;9.760;2023-05-15T15:25:02;81.7;73.6;
13030;PMS7003;6582;54.644;9.760;2023-05-15T15:30:02;81.2;73.4;
13030;PMS7003;6582;54.644;9.760;2023-05-15T15:35:01;81.6;74.0;
13030;PMS7003;6582;54.644;9.760;2023-05-15T15:40:02;81.4;74.0;
13030;PMS7003;6582;54.644;9.760;2023-05-15T15:45:01;80.7;73.0;
13030;PMS7003;6582;54.644;9.760;2023-05-15T15:50:01;80.0;72.6;
13030;PMS7003;6582;54.644;9.760;2023-05-15T15:55:07;77.6;70.5;
13030;PMS7003;6582;54.644;9.760;2023-05-15T16:00:01;75.8;69.2;
13030;PMS7003;6582;54.644;9.760;2023-05-15T16:05:02;75.0;68.2;
13030;PMS7003;6582;54.644;9.760;2023-05-15T16:10:13;73.7;66.6;
13030;PMS7003;6582;54.644;9.760;2023-05-15T16:15:16;72.4;64.5;
13030;PMS7003;6582;54.644;9.760;2023-05-15T16:20:02;72.0;63.5;
13030;PMS7003;6582;54.644;9.760;2023-05-15T16:25:02;71.5;62.4;
13030;PMS7003;6582;54.644;9.760;2023-05-15T16:30:01;70.9;61.5;
13030;PMS7003;6582;54.644;9.760;2023-05-15T16:35:01;70.5;61.2;
13030;PMS7003;6582;54.644;9.760;2023-05-15T16:40:07;70.6;61.3;
13030;PMS7003;6582;54.644;9.760;2023-05-15T16:45:02;70.7;61.4;
13030;PMS7003;6582;54.644;9.760;2023-05-15T16:50:01;70.8;61.7;
13030;PMS7003;6582;54.644;9.760;2023-05-15T16:55:01;74.1;65.0;
13030;PMS7003;6582;54.644;9.760;2023-05-15T17:00:01;74.7;65.8;
13030;PMS7003;6582;54.644;9.760;2023-05-15T17:05:01;75.5;67.7;
13030;PMS7003;6582;54.644;9.760;2023-05-15T17:10:01;76.5;69.2;
13030;PMS7003;6582;54.644;9.760;2023-05-15T17:15:02;78.2;71.4;
13030;PMS7003;6582;54.644;9.760;2023-05-15T17:20:04;75.2;69.2;
13030;PMS7003;6582;54.644;9.760;2023-05-15T17:25:01;75.8;69.8;
13030;PMS7003;6582;54.644;9.760;2023-05-15T17:30:02;76.1;70.2;
13030;PMS7003;6582;54.644;9.760;2023-05-15T17:35:01;75.8;69.9;
13030;PMS7003;6582;54.644;9.760;2023-05-15T17:40:07;75.4;69.9;
13030;PMS7003;6582;54.644;9.760;2023-05-15T17:45:02;77.1;72.5;
13030;PMS7003;6582;54.644;9.760;2023-05-15T17:50:01;78.1;75.0;
13030;PMS7003;6582;54.644;9.760;2023-05-15T17:55:01;78.5;75.6;
13030;PMS7003;6582;54.644;9.760;2023-05-15T18:00:01;80.3;77.7;
13030;PMS7003;6582;54.644;9.760;2023-05-15T18:05:01;81.4;78.6;
13030;PMS7003;6582;54.644;9.760;2023-05-15T18:10:01;81.0;77.6;
13030;PMS7003;6582;54.644;9.760;2023-05-15T18:15:01;81.0;76.4;
13030;PMS7003;6582;54.644;9.760;2023-05-15T18:20:01;81.1;76.4;
13030;PMS7003;6582;54.644;9.760;2023-05-15T18:25:01;80.4;76.0;
13030;PMS7003;6582;54.644;9.760;2023-05-15T18:30:01;79.6;75.1;
13030;PMS7003;6582;54.644;9.760;2023-05-15T18:35:01;79.2;74.7;
13030;PMS7003;6582;54.644;9.760;2023-05-15T18:45:02;79.7;75.5;
13030;PMS7003;6582;54.644;9.760;2023-05-15T18:50:01;79.1;72.1;
13030;PMS7003;6582;54.644;9.760;2023-05-15T18:55:01;79.3;71.6;
13030;PMS7003;6582;54.644;9.760;2023-05-15T19:00:02;80.2;71.5;
13030;PMS7003;6582;54.644;9.760;2023-05-15T19:05:01;80.5;70.7;
13030;PMS7003;6582;54.644;9.760;2023-05-15T19:10:01;81.0;68.5;
13030;PMS7003;6582;54.644;9.760;2023-05-15T19:15:01;82.8;72.6;
13030;PMS7003;6582;54.644;9.760;2023-05-15T19:20:01;84.5;74.9;
13030;PMS7003;6582;54.644;9.760;2023-05-15T19:25:01;85.0;76.1;
13030;PMS7003;6582;54.644;9.760;2023-05-15T19:30:01;85.2;76.8;
13030;PMS7003;6582;54.644;9.760;2023-05-15T19:35:01;85.4;78.2;
13030;PMS7003;6582;54.644;9.760;2023-05-15T19:40:01;84.4;75.6;
13030;PMS7003;6582;54.644;9.760;2023-05-15T19:45:01;83.4;73.6;
13030;PMS7003;6582;54.644;9.760;2023-05-15T19:50:01;83.2;72.4;
13030;PMS7003;6582;54.644;9.760;2023-05-15T19:55:01;82.6;70.4;
13030;PMS7003;6582;54.644;9.760;2023-05-15T20:00:01;81.1;67.2;
13030;PMS7003;6582;54.644;9.760;2023-05-15T20:05:01;79.7;65.2;
13030;PMS7003;6582;54.644;9.760;2023-05-15T20:10:01;77.7;61.8;
13030;PMS7003;6582;54.644;9.760;2023-05-15T20:15:01;75.6;58.8;
13030;PMS7003;6582;54.644;9.760;2023-05-15T20:20:01;74.3;57.7;
13030;PMS7003;6582;54.644;9.760;2023-05-15T20:25:01;73.0;57.2;
13030;PMS7003;6582;54.644;9.760;2023-05-15T20:30:02;72.5;56.8;
13030;PMS7003;6582;54.644;9.760;2023-05-15T20:35:01;72.3;56.7;
13030;PMS7003;6582;54.644;9.760;2023-05-15T20:40:01;73.2;57.2;
13030;PMS7003;6582;54.644;9.760;2023-05-15T20:45:02;75.0;58.6;
13030;PMS7003;6582;54.644;9.760;2023-05-15T20:50:01;76.4;59.3;
13030;PMS7003;6582;54.644;9.760;2023-05-15T20:55:10;78.0;60.5;
13030;PMS7003;6582;54.644;9.760;2023-05-15T21:00:01;79.3;61.6;
13030;PMS7003;6582;54.644;9.760;2023-05-15T21:05:01;79.6;61.8;
13030;PMS7003;6582;54.644;9.760;2023-05-15T21:10:02;79.2;60.9;
13030;PMS7003;6582;54.644;9.760;2023-05-15T21:30:01;79.0;64.4;
13030;PMS7003;6582;54.644;9.760;2023-05-15T21:35:02;78.9;62.5;
13030;PMS7003;6582;54.644;9.760;2023-05-15T21:40:01;80.4;64.2;
13030;PMS7003;6582;54.644;9.760;2023-05-15T21:45:01;79.6;63.3;
13030;PMS7003;6582;54.644;9.760;2023-05-15T21:50:01;80.2;63.6;
13030;PMS7003;6582;54.644;9.760;2023-05-15T21:55:01;79.9;62.5;
13030;PMS7003;6582;54.644;9.760;2023-05-15T22:00:02;79.2;62.3;
13030;PMS7003;6582;54.644;9.760;2023-05-15T22:05:01;77.7;60.5;
13030;PMS7003;6582;54.644;9.760;2023-05-15T22:10:06;79.4;62.3;
13030;PMS7003;6582;54.644;9.760;2023-05-15T22:15:02;81.3;64.6;
13030;PMS7003;6582;54.644;9.760;2023-05-15T22:20:01;82.7;66.3;
13030;PMS7003;6582;54.644;9.760;2023-05-15T22:25:01;85.8;70.2;
13030;PMS7003;6582;54.644;9.760;2023-05-15T22:30:01;89.4;75.2;
13030;PMS7003;6582;54.644;9.760;2023-05-15T22:35:01;91.3;78.9;
13030;PMS7003;6582;54.644;9.760;2023-05-15T22:40:01;93.9;83.2;
13030;PMS7003;6582;54.644;9.760;2023-05-15T22:45:02;95.8;86.5;
13030;PMS7003;6582;54.644;9.760;2023-05-15T22:50:01;98.2;89.3;
13030;PMS7003;6582;54.644;9.760;2023-05-15T22:55:01;98.0;88.8;
13030;PMS7003;6582;54.644;9.760;2023-05-15T23:00:01;96.5;86.0;
13030;PMS7003;6582;54.644;9.760;2023-05-15T23:05:01;94.4;83.5;
13030;PMS7003;6582;54.644;9.760;2023-05-15T23:10:01;94.8;84.0;
13030;PMS7003;6582;54.644;9.760;2023-05-15T23:15:06;93.6;83.4;
13030;PMS7003;6582;54.644;9.760;2023-05-15T23:20:01;96.2;87.2;
13030;PMS7003;6582;54.644;9.760;2023-05-15T23:25:01;98.8;91.6;
13030;PMS7003;6582;54.644;9.760;2023-05-15T23:30:01;100.5;93.8;
13030;PMS7003;6582;54.644;9.760;2023-05-15T23:35:01;101.9;96.4;
13030;PMS7003;6582;54.644;9.760;2023-05-15T23:40:01;103.2;98.2;
13030;PMS7003;6582;54.644;9.760;2023-05-15T23:45:01;102.0;97.2;
13030;PMS7003;6582;54.644;9.760;2023-05-15T23:50:01;103.2;98.1;
13030;PMS7003;6582;54.644;9.760;2023-05-15T23:55:01;105.2;100.8;
